createdAt,value
2023-06-18T00:04:22.457Z,13.74
2023-06-18T00:09:24.911Z,13.69
2023-06-18T00:14:25.560Z,13.67
2023-06-18T00:19:26.248Z,13.60
2023-06-18T00:24:28.324Z,13.45
2023-06-18T00:29:30.681Z,13.44
2023-06-18T00:34:34.134Z,13.40
2023-06-18T00:39:36.618Z,13.35
2023-06-18T00:44:41.119Z,13.32
2023-06-18T00:49:42.723Z,13.25
2023-06-18T00:54:46.742Z,13.21
2023-06-18T00:59:48.197Z,13.17
2023-06-18T01:04:48.921Z,13.09
2023-06-18T01:09:54.482Z,13.07
2023-06-18T01:14:55.593Z,13.10
2023-06-18T01:19:59.464Z,13.06
2023-06-18T01:25:04.946Z,13.03
2023-06-18T01:30:06.917Z,12.99
2023-06-18T01:35:09.250Z,12.91
2023-06-18T01:40:17.890Z,12.88
2023-06-18T01:45:26.157Z,12.80
2023-06-18T01:50:28.697Z,12.75
2023-06-18T01:55:34.298Z,12.76
2023-06-18T02:00:35.386Z,12.68
2023-06-18T02:05:36.279Z,12.64
2023-06-18T02:10:38.263Z,12.64
2023-06-18T02:15:42.940Z,12.61
2023-06-18T02:20:43.973Z,12.47
2023-06-18T02:25:46.636Z,12.48
2023-06-18T02:30:50.308Z,12.44
2023-06-18T02:35:50.977Z,12.49
2023-06-18T02:40:52.956Z,12.43
2023-06-18T02:45:53.769Z,12.34
2023-06-18T02:50:54.482Z,12.25
2023-06-18T02:55:56.613Z,12.29
2023-06-18T03:00:57.615Z,12.26
2023-06-18T03:05:58.750Z,12.18
2023-06-18T03:11:01.096Z,12.14
2023-06-18T03:16:04.821Z,12.20
2023-06-18T03:21:08.077Z,12.36
2023-06-18T03:26:10.705Z,12.48
2023-06-18T03:31:11.743Z,12.55
2023-06-18T03:36:16.770Z,12.70
2023-06-18T03:41:18.880Z,12.78
2023-06-18T03:46:20.271Z,12.79
2023-06-18T03:51:21.778Z,12.87
2023-06-18T03:56:24.173Z,12.92
2023-06-18T04:01:25.387Z,12.94
2023-06-18T04:06:26.185Z,13.06
2023-06-18T04:11:28.921Z,13.08
2023-06-18T04:16:30.308Z,13.10
2023-06-18T04:21:32.394Z,13.13
2023-06-18T04:26:34.595Z,13.13
2023-06-18T04:31:35.884Z,13.22
2023-06-18T04:36:38.050Z,13.25
2023-06-18T04:41:40.228Z,13.39
2023-06-18T04:46:41.485Z,13.46
2023-06-18T04:51:44.592Z,13.49
2023-06-18T04:56:49.518Z,13.58
2023-06-18T05:01:50.267Z,13.76
2023-06-18T05:06:51.061Z,13.66
2023-06-18T05:11:53.696Z,13.75
2023-06-18T05:16:54.597Z,13.85
2023-06-18T05:21:55.453Z,14.09
2023-06-18T05:26:59.900Z,14.35
2023-06-18T05:32:01.273Z,14.49
2023-06-18T05:37:05.732Z,14.64
2023-06-18T05:42:09.286Z,14.92
2023-06-18T05:47:10.553Z,15.03
2023-06-18T05:52:11.467Z,15.18
2023-06-18T05:57:14.817Z,15.46
2023-06-18T06:02:16.257Z,15.73
2023-06-18T06:07:17.744Z,15.91
2023-06-18T06:12:19.852Z,16.08
2023-06-18T06:17:20.656Z,16.28
2023-06-18T06:22:21.433Z,16.33
2023-06-18T06:27:23.748Z,16.57
2023-06-18T06:32:24.457Z,16.84
2023-06-18T06:37:25.275Z,16.99
2023-06-18T06:42:28.078Z,17.19
2023-06-18T06:47:49.477Z,17.42
2023-06-18T06:53:03.977Z,17.63
2023-06-18T06:58:05.951Z,17.74
2023-06-18T07:03:07.913Z,18.02
2023-06-18T07:08:09.712Z,18.20
2023-06-18T07:13:11.728Z,18.31
2023-06-18T07:18:12.410Z,18.44
2023-06-18T07:23:13.100Z,18.67
2023-06-18T07:28:15.164Z,18.92
2023-06-18T07:33:15.801Z,19.16
2023-06-18T07:38:16.671Z,19.39
2023-06-18T07:43:18.716Z,19.46
2023-06-18T07:48:19.979Z,19.61
2023-06-18T07:53:20.855Z,19.81
2023-06-18T07:58:23.227Z,20.04
2023-06-18T08:03:24.150Z,20.18
2023-06-18T08:08:24.897Z,20.27
2023-06-18T08:13:26.927Z,20.48
2023-06-18T08:18:27.852Z,20.68
2023-06-18T08:23:28.637Z,20.89
2023-06-18T08:28:30.700Z,21.12
2023-06-18T08:33:31.350Z,21.29
2023-06-18T08:38:32.018Z,21.47
2023-06-18T08:43:34.312Z,21.59
2023-06-18T08:48:41.701Z,21.66
2023-06-18T08:53:46.233Z,21.90
2023-06-18T08:58:52.110Z,22.17
2023-06-18T09:03:55.201Z,22.22
2023-06-18T09:08:57.755Z,22.24
2023-06-18T09:13:59.758Z,22.32
2023-06-18T09:19:04.888Z,22.43
2023-06-18T09:24:09.128Z,22.42
2023-06-18T09:29:12.404Z,22.62
2023-06-18T09:34:15.011Z,22.89
2023-06-18T09:39:19.889Z,22.95
2023-06-18T09:44:24.038Z,23.11
2023-06-18T09:49:26.313Z,23.42
2023-06-18T09:54:40.083Z,23.52
2023-06-18T09:59:42.435Z,23.66
2023-06-18T10:04:43.127Z,23.78
2023-06-18T10:09:46.828Z,23.75
2023-06-18T10:14:54.695Z,24.06
2023-06-18T10:20:01.744Z,23.81
2023-06-18T10:25:05.378Z,24.51
2023-06-18T10:30:08.899Z,24.57
2023-06-18T10:35:10.916Z,24.67
2023-06-18T10:40:13.212Z,24.75
2023-06-18T10:45:17.157Z,24.33
2023-06-18T10:50:21.408Z,24.64
2023-06-18T10:55:32.406Z,24.62
2023-06-18T11:00:37.087Z,24.58
2023-06-18T11:05:48.947Z,25.01
2023-06-18T11:10:51.097Z,25.45
2023-06-18T11:16:00.659Z,25.81
2023-06-18T11:21:04.210Z,25.84
2023-06-18T11:26:05.204Z,25.60
2023-06-18T11:31:07.326Z,25.61
2023-06-18T11:36:10.601Z,25.46
2023-06-18T11:41:12.009Z,25.66
2023-06-18T11:46:28.877Z,26.23
2023-06-18T11:51:31.085Z,26.33
2023-06-18T11:56:31.991Z,25.54
2023-06-18T12:01:34.558Z,25.81
2023-06-18T12:06:36.266Z,25.61
2023-06-18T12:11:52.828Z,25.96
2023-06-18T12:16:59.050Z,26.23
2023-06-18T12:22:00.838Z,26.18
2023-06-18T12:27:02.036Z,26.20
2023-06-18T12:32:05.892Z,26.66
2023-06-18T12:37:07.464Z,26.45
2023-06-18T12:42:13.404Z,26.75
2023-06-18T12:47:19.213Z,26.42
2023-06-18T12:52:21.136Z,26.63
2023-06-18T12:57:22.872Z,26.90
2023-06-18T13:02:25.240Z,26.67
2023-06-18T13:07:25.979Z,26.49
2023-06-18T13:12:26.661Z,26.43
2023-06-18T13:17:29.135Z,26.43
2023-06-18T13:22:30.276Z,27.14
2023-06-18T13:27:31.372Z,27.13
2023-06-18T13:32:33.513Z,27.18
2023-06-18T13:37:34.334Z,27.30
2023-06-18T13:42:35.042Z,27.06
2023-06-18T13:47:37.344Z,27.37
2023-06-18T13:52:38.217Z,27.61
2023-06-18T13:57:39.392Z,27.70
2023-06-18T14:02:41.555Z,27.82
2023-06-18T14:07:42.454Z,27.66
2023-06-18T14:12:43.126Z,27.84
2023-06-18T14:17:47.804Z,28.12
2023-06-18T14:22:51.003Z,28.07
2023-06-18T14:27:51.721Z,28.51
2023-06-18T14:32:53.958Z,28.40
2023-06-18T14:37:58.967Z,28.85
2023-06-18T14:43:00.068Z,28.40
2023-06-18T14:48:06.087Z,28.78
2023-06-18T14:53:08.716Z,28.64
2023-06-18T14:58:09.544Z,28.75
2023-06-18T15:03:11.622Z,28.59
2023-06-18T15:08:12.355Z,28.52
2023-06-18T15:13:13.083Z,28.08
2023-06-18T15:18:15.446Z,28.42
2023-06-18T15:23:16.243Z,28.70
2023-06-18T15:28:17.828Z,29.11
2023-06-18T15:33:19.922Z,29.18
2023-06-18T15:38:20.920Z,29.18
2023-06-18T15:43:22.027Z,29.48
2023-06-18T15:48:24.315Z,29.71
2023-06-18T15:53:24.937Z,29.81
2023-06-18T15:58:26.073Z,30.10
2023-06-18T16:03:28.033Z,30.25
2023-06-18T16:08:28.710Z,30.29
2023-06-18T16:13:29.775Z,31.05
2023-06-18T16:18:31.816Z,32.44
2023-06-18T16:23:32.493Z,32.88
2023-06-18T16:28:33.335Z,34.11
2023-06-18T16:33:36.403Z,34.36
2023-06-18T16:38:37.029Z,34.20
2023-06-18T16:43:38.805Z,33.19
2023-06-18T16:48:40.907Z,32.21
2023-06-18T16:53:41.570Z,33.32
2023-06-18T16:58:42.277Z,33.15
2023-06-18T17:03:44.309Z,34.11
2023-06-18T17:08:45.101Z,34.13
2023-06-18T17:13:46.025Z,34.52
2023-06-18T17:18:48.025Z,33.97
2023-06-18T17:23:48.671Z,34.57
2023-06-18T17:28:49.340Z,34.54
2023-06-18T17:33:51.369Z,34.19
2023-06-18T17:38:53.252Z,34.45
2023-06-18T17:43:53.954Z,33.40
2023-06-18T17:48:55.987Z,32.66
2023-06-18T17:53:56.756Z,31.75
2023-06-18T17:58:57.578Z,32.57
2023-06-18T18:03:59.605Z,31.66
2023-06-18T18:09:00.294Z,30.88
2023-06-18T18:14:05.007Z,30.07
2023-06-18T18:19:07.144Z,28.70
2023-06-18T18:24:08.262Z,27.79
2023-06-18T18:29:09.025Z,27.14
2023-06-18T18:34:11.866Z,26.51
2023-06-18T18:39:12.802Z,26.08
2023-06-18T18:44:13.536Z,25.78
2023-06-18T18:49:15.572Z,25.60
2023-06-18T18:54:17.465Z,25.27
2023-06-18T18:59:19.048Z,24.83
2023-06-18T19:04:21.323Z,24.41
2023-06-18T19:09:21.986Z,24.04
2023-06-18T19:14:22.868Z,23.75
2023-06-18T19:19:25.700Z,23.57
2023-06-18T19:24:26.436Z,23.29
2023-06-18T19:29:27.217Z,22.97
2023-06-18T19:34:29.260Z,22.80
2023-06-18T19:39:31.015Z,22.44
2023-06-18T19:44:31.703Z,22.42
2023-06-18T19:49:33.727Z,22.09
2023-06-18T19:54:37.401Z,21.82
2023-06-18T19:59:38.103Z,21.53
2023-06-18T20:04:40.145Z,21.32
2023-06-18T20:09:43.331Z,21.43
2023-06-18T20:14:46.719Z,21.30
2023-06-18T20:19:48.707Z,21.37
2023-06-18T20:24:49.401Z,21.21
2023-06-18T20:29:50.756Z,21.01
2023-06-18T20:34:54.892Z,20.78
2023-06-18T20:39:55.878Z,20.76
2023-06-18T20:44:56.567Z,20.59
2023-06-18T20:49:58.537Z,20.52
2023-06-18T20:54:59.202Z,20.49
2023-06-18T20:59:59.819Z,20.32
2023-06-18T21:05:01.953Z,20.33
2023-06-18T21:10:02.614Z,20.32
2023-06-18T21:15:03.660Z,20.24
2023-06-18T21:20:06.924Z,20.24
2023-06-18T21:25:08.224Z,20.15
2023-06-18T21:30:10.705Z,20.10
2023-06-18T21:35:12.743Z,20.18
2023-06-18T21:40:14.583Z,20.19
2023-06-18T21:45:15.288Z,20.11
2023-06-18T21:50:17.379Z,19.87
2023-06-18T21:55:18.474Z,19.81
2023-06-18T22:00:20.254Z,19.59
2023-06-18T22:05:22.277Z,19.46
2023-06-18T22:10:23.177Z,19.31
2023-06-18T22:15:24.027Z,19.28
2023-06-18T22:20:26.759Z,19.17
2023-06-18T22:25:32.190Z,19.08
2023-06-18T22:30:32.854Z,18.88
2023-06-18T22:35:35.742Z,18.90
2023-06-18T22:40:36.456Z,18.88
2023-06-18T22:45:37.387Z,18.78
2023-06-18T22:50:39.866Z,18.62
2023-06-18T22:55:40.578Z,18.45
2023-06-18T23:00:41.263Z,18.36
2023-06-18T23:05:43.247Z,18.46
2023-06-18T23:10:45.705Z,18.53
2023-06-18T23:15:46.640Z,18.42
2023-06-18T23:20:48.943Z,18.50
2023-06-18T23:25:49.570Z,18.32
2023-06-18T23:30:50.430Z,18.40
2023-06-18T23:35:52.569Z,18.07
2023-06-18T23:40:53.331Z,17.90
2023-06-18T23:45:53.981Z,17.80
2023-06-18T23:50:57.275Z,17.67
2023-06-18T23:55:57.900Z,17.60
